Time;durP1;ratioP1;P1;durP2;ratioP2;P2;SDS_P1;SDS_P2;PMS_P1;PMS_P2;Temp;Humidity;BMP_temperature;BMP_pressure;BME280_temperature;BME280_humidity;BME280_pressure;Samples;Min_cycle;Max_cycle;Signal;HPM_P1;HPM_P2
2022/01/01 00:00:09;;;;;;;7.50;0.57;;;26.50;99.90;;;;;;5041816;28;20029;-68
2022/01/01 00:02:37;;;;;;;4.70;0.85;;;26.50;99.90;;;;;;5052991;28;20584;-68
2022/01/01 00:05:06;;;;;;;6.00;0.80;;;26.60;99.90;;;;;;5048594;28;20029;-69
2022/01/01 00:07:34;;;;;;;6.75;0.70;;;26.70;99.90;;;;;;5053007;28;20025;-68
2022/01/01 00:10:03;;;;;;;4.05;0.55;;;26.70;99.90;;;;;;5060149;28;20048;-68
2022/01/01 00:12:30;;;;;;;7.88;0.70;;;26.50;99.90;;;;;;5058901;28;20025;-69
2022/01/01 00:14:57;;;;;;;6.95;0.60;;;26.60;99.90;;;;;;5059230;28;20109;-68
2022/01/01 00:17:24;;;;;;;7.75;0.70;;;26.70;99.90;;;;;;5059810;28;20104;-68
2022/01/01 00:19:52;;;;;;;10.18;0.65;;;26.60;99.90;;;;;;5061035;28;20025;-67
2022/01/01 00:22:19;;;;;;;9.23;1.30;;;26.50;99.90;;;;;;5052426;28;20025;-67
2022/01/01 00:24:47;;;;;;;3.35;0.80;;;26.80;99.90;;;;;;5056609;28;20021;-66
2022/01/01 00:27:14;;;;;;;5.47;0.68;;;26.80;99.90;;;;;;5052286;28;20021;-67
2022/01/01 00:29:41;;;;;;;4.50;0.60;;;26.90;99.90;;;;;;5054851;28;20477;-67
2022/01/01 00:32:08;;;;;;;4.10;0.63;;;26.80;99.90;;;;;;5055093;28;20025;-68
2022/01/01 00:34:37;;;;;;;5.93;0.82;;;26.60;99.90;;;;;;5055722;28;20029;-68
2022/01/01 00:37:05;;;;;;;10.82;1.05;;;26.80;99.90;;;;;;5050926;28;20384;-67
2022/01/01 00:39:32;;;;;;;4.70;0.85;;;27.00;99.90;;;;;;5051950;28;20036;-67
2022/01/01 00:41:59;;;;;;;7.25;1.70;;;26.90;99.90;;;;;;5048080;28;20169;-68
2022/01/01 00:44:30;;;;;;;4.28;1.05;;;27.00;99.90;;;;;;5051413;28;20021;-67
2022/01/01 00:46:58;;;;;;;4.28;0.55;;;27.30;99.90;;;;;;5048447;28;20055;-67
2022/01/01 00:49:25;;;;;;;5.25;0.68;;;27.30;99.90;;;;;;5053666;28;20034;-67
2022/01/01 00:51:52;;;;;;;6.85;1.15;;;27.00;99.90;;;;;;5059755;28;20040;-68
2022/01/01 00:54:20;;;;;;;8.02;1.30;;;27.00;99.90;;;;;;5055568;28;20025;-70
2022/01/01 00:56:47;;;;;;;5.50;0.60;;;26.70;99.90;;;;;;5050476;28;20033;-70
2022/01/01 00:59:17;;;;;;;4.70;0.93;;;26.60;99.90;;;;;;5050739;28;20119;-69
2022/01/01 01:01:45;;;;;;;11.27;1.67;;;26.70;99.90;;;;;;5055001;28;20041;-68
2022/01/01 01:04:12;;;;;;;9.70;1.05;;;27.00;99.90;;;;;;5053391;28;20025;-67
2022/01/01 01:06:39;;;;;;;8.15;1.08;;;27.10;99.90;;;;;;5059537;28;20037;-67
2022/01/01 01:09:06;;;;;;;2.72;0.75;;;27.00;99.90;;;;;;5055526;28;20061;-67
2022/01/01 01:11:41;;;;;;;6.22;0.82;;;27.00;99.90;;;;;;5051267;28;20090;-67
2022/01/01 01:14:18;;;;;;;8.73;0.90;;;27.10;99.90;;;;;;5047255;28;20055;-67
2022/01/01 01:16:45;;;;;;;4.28;0.90;;;27.10;99.90;;;;;;5040404;28;20481;-67
2022/01/01 01:19:13;;;;;;;4.85;0.70;;;27.20;99.90;;;;;;5042055;28;20124;-67
2022/01/01 01:21:40;;;;;;;6.78;0.93;;;27.30;99.90;;;;;;5038696;28;20079;-67
2022/01/01 01:24:08;;;;;;;5.70;0.60;;;27.50;99.90;;;;;;5053951;28;20492;-66
2022/01/01 01:26:35;;;;;;;7.13;0.98;;;27.60;99.90;;;;;;5051424;28;20029;-67
2022/01/01 01:29:04;;;;;;;7.43;1.00;;;27.50;99.90;;;;;;5052131;28;20706;-68
2022/01/01 01:31:31;;;;;;;12.32;1.05;;;27.30;99.90;;;;;;5048815;28;20060;-68
2022/01/01 01:34:01;;;;;;;6.03;0.65;;;27.40;99.90;;;;;;5033163;28;20045;-68
2022/01/01 01:36:28;;;;;;;11.40;1.58;;;27.40;99.90;;;;;;5037825;28;20052;-67
2022/01/01 01:38:56;;;;;;;5.75;0.85;;;27.50;99.90;;;;;;5045186;28;20029;-67
2022/01/01 01:41:23;;;;;;;5.45;0.80;;;27.40;99.90;;;;;;5047937;28;20029;-68
2022/01/01 01:43:53;;;;;;;7.55;0.73;;;27.40;99.90;;;;;;5050401;28;20513;-68
2022/01/01 01:46:21;;;;;;;6.47;1.40;;;27.60;99.90;;;;;;5054514;28;20049;-67
2022/01/01 01:48:48;;;;;;;4.50;1.10;;;27.50;99.90;;;;;;5048418;28;20025;-69
2022/01/01 01:51:16;;;;;;;5.25;0.70;;;27.40;99.90;;;;;;5048369;28;20026;-68
2022/01/01 01:53:44;;;;;;;9.07;0.90;;;27.70;99.90;;;;;;5050171;28;20041;-70
2022/01/01 01:56:11;;;;;;;8.95;1.48;;;27.40;99.90;;;;;;5053358;28;20029;-69
2022/01/01 01:58:38;;;;;;;7.72;0.90;;;27.70;99.90;;;;;;5044091;28;20033;-68
2022/01/01 02:01:23;;;;;;;5.45;0.95;;;28.10;99.90;;;;;;5051729;28;20781;-68
2022/01/01 02:03:54;;;;;;;6.55;1.10;;;28.00;99.90;;;;;;5046271;28;20084;-68
2022/01/01 02:06:22;;;;;;;11.02;1.60;;;28.00;99.90;;;;;;5051153;28;20025;-69
2022/01/01 02:08:51;;;;;;;7.38;0.73;;;28.00;99.90;;;;;;5052662;28;20083;-68
2022/01/01 02:11:21;;;;;;;4.65;0.77;;;28.20;99.90;;;;;;5050769;28;20599;-69
2022/01/01 02:18:46;;;;;;;8.15;1.00;;;27.90;99.90;;;;;;5052041;28;20104;-68
2022/01/01 02:21:14;;;;;;;8.43;0.98;;;28.00;99.90;;;;;;5059832;28;20436;-68
2022/01/01 02:23:44;;;;;;;5.85;0.80;;;28.20;99.90;;;;;;5044763;28;20025;-68
2022/01/01 02:26:15;;;;;;;7.30;0.77;;;28.10;99.90;;;;;;5053829;28;20496;-69
2022/01/01 02:28:47;;;;;;;3.83;0.85;;;28.00;99.90;;;;;;5053814;28;20117;-68
2022/01/01 02:31:16;;;;;;;3.33;0.60;;;28.20;99.90;;;;;;5049595;28;20044;-70
2022/01/01 02:33:44;;;;;;;6.20;0.70;;;28.40;99.90;;;;;;5060728;28;20060;-69
2022/01/01 02:36:11;;;;;;;5.68;0.55;;;28.20;99.90;;;;;;5065785;28;20028;-69
2022/01/01 02:38:39;;;;;;;3.97;0.50;;;28.00;99.90;;;;;;5060172;28;20030;-68
2022/01/01 02:41:06;;;;;;;3.15;0.50;;;28.10;99.90;;;;;;5062510;28;20044;-68
2022/01/01 02:43:44;;;;;;;6.75;0.55;;;27.80;99.90;;;;;;5045186;28;20069;-67
2022/01/01 02:46:12;;;;;;;5.18;1.08;;;27.60;99.90;;;;;;5052715;28;20021;-67
2022/01/01 02:48:39;;;;;;;5.28;0.70;;;27.90;99.90;;;;;;5054387;28;20098;-66
2022/01/01 02:51:06;;;;;;;6.47;1.30;;;27.90;99.90;;;;;;5050610;28;20029;-66
2022/01/01 02:53:33;;;;;;;7.43;1.15;;;28.40;99.90;;;;;;5051375;28;20025;-66
2022/01/01 02:56:01;;;;;;;3.35;0.80;;;28.20;99.90;;;;;;5050444;28;20037;-67
2022/01/01 02:58:28;;;;;;;6.45;0.95;;;27.80;99.90;;;;;;5054871;28;20028;-67
2022/01/01 03:00:55;;;;;;;4.28;0.50;;;27.70;99.90;;;;;;5050372;28;20124;-66
2022/01/01 03:03:22;;;;;;;7.53;1.25;;;27.50;99.90;;;;;;5050784;28;20025;-67
2022/01/01 03:05:49;;;;;;;10.57;1.20;;;27.40;99.90;;;;;;5045598;28;20142;-67
2022/01/01 03:08:17;;;;;;;5.85;0.85;;;27.30;99.90;;;;;;5052856;28;20489;-67
2022/01/01 03:10:45;;;;;;;8.20;0.70;;;27.30;99.90;;;;;;5047047;28;20026;-67
2022/01/01 03:13:12;;;;;;;5.72;1.10;;;27.30;99.90;;;;;;5042389;28;20025;-67
2022/01/01 03:15:39;;;;;;;5.55;0.70;;;27.40;99.90;;;;;;5052221;28;20032;-67
2022/01/01 03:18:07;;;;;;;7.72;0.88;;;27.40;99.90;;;;;;5049372;28;20055;-68
2022/01/01 03:20:34;;;;;;;5.38;1.40;;;27.70;99.90;;;;;;5046235;28;20029;-68
2022/01/01 03:23:03;;;;;;;6.22;0.75;;;28.10;99.90;;;;;;5049831;28;20036;-68
2022/01/01 03:25:31;;;;;;;3.92;0.70;;;28.20;99.90;;;;;;5043977;28;20109;-68
2022/01/01 03:27:58;;;;;;;5.00;0.70;;;28.10;99.90;;;;;;5046557;28;20021;-68
2022/01/01 03:30:25;;;;;;;4.72;0.50;;;27.90;99.90;;;;;;5047578;28;20052;-68
2022/01/01 03:32:52;;;;;;;6.55;0.95;;;27.50;99.90;;;;;;5044283;28;20033;-69
2022/01/01 03:35:20;;;;;;;9.38;1.05;;;27.40;99.90;;;;;;5042062;28;20108;-69
2022/01/01 03:37:47;;;;;;;6.90;0.85;;;27.10;99.90;;;;;;5040764;28;20055;-69
2022/01/01 03:40:15;;;;;;;6.38;0.85;;;27.30;99.90;;;;;;5050887;28;20025;-69
2022/01/01 03:42:42;;;;;;;5.88;1.00;;;27.10;99.90;;;;;;5044311;28;20402;-67
2022/01/01 03:45:10;;;;;;;10.10;1.25;;;26.90;99.90;;;;;;5049448;28;20025;-68
2022/01/01 03:47:37;;;;;;;4.70;0.70;;;26.90;99.90;;;;;;5031769;28;20410;-67
2022/01/01 03:50:05;;;;;;;5.10;0.60;;;26.80;99.90;;;;;;5035324;28;20025;-68
2022/01/01 03:52:34;;;;;;;12.68;1.33;;;26.90;99.90;;;;;;5037405;28;20029;-69
2022/01/01 03:55:02;;;;;;;10.85;1.70;;;26.90;99.90;;;;;;5034473;28;20041;-68
2022/01/01 03:57:29;;;;;;;7.03;1.50;;;26.90;99.90;;;;;;5044016;28;20112;-68
2022/01/01 03:59:56;;;;;;;4.13;0.70;;;26.90;99.90;;;;;;5048772;28;20243;-69
2022/01/01 04:02:24;;;;;;;2.55;0.60;;;26.70;99.90;;;;;;5047502;28;20036;-68
2022/01/01 04:04:51;;;;;;;6.03;0.93;;;26.40;99.90;;;;;;5051300;28;20029;-67
2022/01/01 04:07:18;;;;;;;3.25;0.93;;;26.30;99.90;;;;;;5046502;28;20112;-68
2022/01/01 04:09:45;;;;;;;3.33;0.63;;;26.40;99.90;;;;;;5047789;28;20029;-68
2022/01/01 04:12:13;;;;;;;4.25;0.60;;;26.30;99.90;;;;;;5044835;28;20105;-68
2022/01/01 04:14:40;;;;;;;3.40;0.75;;;26.40;99.90;;;;;;5051859;28;20056;-68
2022/01/01 04:17:09;;;;;;;10.40;0.73;;;26.20;99.90;;;;;;5046451;28;20078;-68
2022/01/01 04:19:39;;;;;;;9.60;1.20;;;26.20;99.90;;;;;;5049224;28;20020;-68
2022/01/01 04:22:11;;;;;;;8.32;1.30;;;26.30;99.90;;;;;;5047289;28;20041;-68
2022/01/01 04:24:39;;;;;;;8.82;1.27;;;26.40;99.90;;;;;;5050218;28;20033;-70
2022/01/01 04:27:08;;;;;;;7.32;0.90;;;26.30;99.90;;;;;;5052975;28;20029;-68
2022/01/01 04:29:36;;;;;;;7.22;1.30;;;26.40;99.90;;;;;;5037551;28;20052;-69
2022/01/01 04:32:04;;;;;;;9.73;1.23;;;26.40;99.90;;;;;;5042369;28;20029;-68
2022/01/01 04:34:31;;;;;;;6.18;1.00;;;26.30;99.90;;;;;;5049744;28;20032;-68
2022/01/01 04:37:05;;;;;;;8.38;1.33;;;26.30;99.90;;;;;;5051950;28;20083;-69
2022/01/01 04:39:32;;;;;;;8.52;0.90;;;26.30;99.90;;;;;;5043068;28;20029;-70
2022/01/01 04:42:00;;;;;;;7.43;1.10;;;26.20;99.90;;;;;;5045998;28;20435;-71
2022/01/01 04:44:27;;;;;;;12.07;1.23;;;26.20;99.90;;;;;;5050705;28;20033;-71
2022/01/01 04:46:54;;;;;;;10.48;1.30;;;26.20;99.90;;;;;;5049722;28;20052;-72
2022/01/01 04:49:22;;;;;;;8.32;1.10;;;26.30;99.90;;;;;;5051865;28;20155;-69
2022/01/01 04:51:50;;;;;;;6.13;0.90;;;26.20;99.90;;;;;;5045001;28;20044;-69
2022/01/01 04:54:17;;;;;;;7.43;1.45;;;26.10;99.90;;;;;;5049536;28;20029;-71
2022/01/01 04:56:47;;;;;;;4.85;0.80;;;26.30;99.90;;;;;;5050266;28;20025;-71
2022/01/01 04:59:16;;;;;;;8.93;1.27;;;26.30;99.90;;;;;;5049173;28;20084;-72
2022/01/01 05:01:44;;;;;;;9.50;1.30;;;26.30;99.90;;;;;;5046035;28;20056;-70
2022/01/01 05:04:12;;;;;;;9.05;1.70;;;26.40;99.90;;;;;;5059984;28;20071;-69
2022/01/01 05:06:41;;;;;;;10.27;1.58;;;26.40;99.90;;;;;;5045714;28;20029;-72
2022/01/01 05:09:09;;;;;;;6.00;0.68;;;26.60;99.90;;;;;;5048004;28;20079;-68
2022/01/01 05:11:36;;;;;;;7.80;1.67;;;26.40;99.90;;;;;;5044007;28;20026;-67
2022/01/01 05:14:04;;;;;;;10.48;0.75;;;26.30;99.90;;;;;;5034847;28;20057;-66
2022/01/01 05:16:31;;;;;;;11.82;1.38;;;26.20;99.90;;;;;;5043082;28;20061;-66
2022/01/01 05:18:58;;;;;;;9.93;1.02;;;26.30;99.90;;;;;;5035787;28;20385;-66
2022/01/01 05:21:30;;;;;;;9.52;1.27;;;26.30;99.90;;;;;;5041122;28;20374;-68
2022/01/01 05:23:58;;;;;;;8.60;1.20;;;26.50;99.90;;;;;;5053268;28;20021;-67
2022/01/01 05:26:25;;;;;;;9.55;1.13;;;26.40;99.90;;;;;;5052995;28;20039;-66
2022/01/01 05:28:52;;;;;;;5.80;0.90;;;26.30;99.90;;;;;;5047257;28;20025;-67
2022/01/01 05:31:20;;;;;;;9.30;0.90;;;26.40;99.90;;;;;;5049136;28;20024;-67
2022/01/01 05:33:48;;;;;;;6.63;0.90;;;26.50;99.90;;;;;;5055470;28;20052;-67
2022/01/01 05:36:17;;;;;;;6.85;1.45;;;26.50;99.90;;;;;;5054159;28;20025;-68
2022/01/01 05:38:46;;;;;;;7.20;0.60;;;26.60;99.90;;;;;;5051601;28;20074;-66
2022/01/01 05:41:13;;;;;;;8.98;1.15;;;26.60;99.90;;;;;;5046696;28;20029;-66
2022/01/01 05:43:40;;;;;;;8.35;1.10;;;26.50;99.90;;;;;;5047388;28;20040;-66
2022/01/01 05:46:08;;;;;;;6.75;1.45;;;26.10;99.90;;;;;;5043769;28;20018;-66
2022/01/01 05:48:35;;;;;;;7.28;1.63;;;25.90;99.90;;;;;;5042666;28;20033;-67
2022/01/01 05:51:03;;;;;;;8.60;1.55;;;25.90;99.90;;;;;;5046582;28;20029;-67
2022/01/01 05:53:31;;;;;;;6.43;1.35;;;25.80;99.90;;;;;;5047884;28;20123;-66
2022/01/01 05:55:58;;;;;;;5.07;0.93;;;25.80;99.90;;;;;;5048233;28;20025;-66
2022/01/01 05:58:25;;;;;;;13.43;1.25;;;25.90;99.90;;;;;;5050722;28;20021;-66
2022/01/01 06:00:53;;;;;;;10.88;1.45;;;25.80;99.90;;;;;;5049362;28;20025;-65
2022/01/01 06:03:20;;;;;;;10.02;1.42;;;25.70;99.90;;;;;;5050024;28;20025;-66
2022/01/01 06:05:51;;;;;;;7.90;1.00;;;25.70;99.90;;;;;;5053000;28;20035;-66
2022/01/01 06:08:19;;;;;;;10.00;1.08;;;25.60;99.90;;;;;;5050099;28;20033;-66
2022/01/01 06:10:47;;;;;;;13.93;1.75;;;25.60;99.90;;;;;;5050429;28;20104;-67
2022/01/01 06:13:14;;;;;;;8.98;1.13;;;25.40;99.90;;;;;;5055532;28;20029;-66
2022/01/01 06:15:43;;;;;;;13.77;1.88;;;25.40;99.90;;;;;;5059089;28;20397;-67
2022/01/01 06:18:10;;;;;;;13.88;1.60;;;25.30;99.90;;;;;;5057127;28;20508;-66
2022/01/01 06:20:37;;;;;;;11.40;1.50;;;25.20;99.90;;;;;;5059122;28;20025;-66
2022/01/01 06:23:06;;;;;;;11.27;1.38;;;25.20;99.90;;;;;;5056231;28;20036;-66
2022/01/01 06:25:34;;;;;;;8.77;1.30;;;25.20;99.90;;;;;;5054843;28;20074;-66
2022/01/01 06:28:03;;;;;;;9.38;1.30;;;25.20;99.90;;;;;;5053130;28;20017;-66
2022/01/01 06:30:33;;;;;;;12.00;1.38;;;25.00;99.90;;;;;;5047420;28;20036;-66
2022/01/01 06:33:14;;;;;;;11.50;1.80;;;25.00;99.90;;;;;;5054687;28;20032;-66
2022/01/01 06:35:42;;;;;;;12.35;1.45;;;24.90;99.90;;;;;;5055248;28;20386;-66
2022/01/01 06:38:11;;;;;;;8.55;1.63;;;24.90;99.90;;;;;;5048996;28;20025;-66
2022/01/01 06:40:39;;;;;;;11.77;1.85;;;24.80;99.90;;;;;;5043238;28;20033;-66
2022/01/01 06:43:08;;;;;;;8.98;1.85;;;24.80;99.90;;;;;;5051545;28;20052;-66
2022/01/01 06:45:36;;;;;;;7.28;1.58;;;24.80;99.90;;;;;;5046260;28;20025;-66
2022/01/01 06:48:03;;;;;;;10.32;1.58;;;24.90;99.90;;;;;;5042763;28;20037;-66
2022/01/01 06:50:31;;;;;;;14.55;1.60;;;24.90;99.90;;;;;;5053747;28;20029;-66
2022/01/01 06:52:58;;;;;;;7.55;1.95;;;24.70;99.90;;;;;;5053131;28;20349;-66
2022/01/01 06:55:26;;;;;;;15.27;2.58;;;24.70;99.90;;;;;;5056870;28;20035;-66
2022/01/01 06:57:53;;;;;;;11.77;1.88;;;24.50;99.90;;;;;;5054307;28;20452;-66
2022/01/01 07:00:20;;;;;;;8.63;1.85;;;24.60;99.90;;;;;;5057818;28;20020;-67
2022/01/01 07:02:48;;;;;;;8.45;1.13;;;24.60;99.90;;;;;;5050145;28;20036;-67
2022/01/01 07:05:16;;;;;;;10.10;1.40;;;24.60;99.90;;;;;;5048290;28;20943;-68
2022/01/01 07:07:44;;;;;;;13.15;1.38;;;24.40;99.90;;;;;;5036765;28;20026;-67
2022/01/01 07:10:12;;;;;;;10.18;1.30;;;24.40;99.90;;;;;;5034184;28;20030;-68
2022/01/01 07:12:41;;;;;;;13.82;2.50;;;24.40;99.90;;;;;;5047956;28;20057;-68
2022/01/01 07:15:10;;;;;;;7.47;1.13;;;24.50;99.90;;;;;;5052234;28;20021;-68
2022/01/01 07:17:37;;;;;;;17.33;2.83;;;24.50;99.90;;;;;;5051098;28;20025;-68
2022/01/01 07:20:05;;;;;;;14.60;3.25;;;24.40;99.90;;;;;;5050388;28;20029;-68
2022/01/01 07:22:38;;;;;;;12.68;1.50;;;24.40;99.90;;;;;;5062848;28;20025;-64
2022/01/01 07:25:06;;;;;;;13.30;2.70;;;24.60;99.90;;;;;;5072944;28;20009;-64
2022/01/01 07:27:33;;;;;;;12.32;1.98;;;24.90;99.90;;;;;;5074498;28;20021;-63
2022/01/01 07:30:00;;;;;;;18.45;3.35;;;25.10;99.90;;;;;;5078510;28;20017;-64
2022/01/01 07:32:27;;;;;;;10.98;1.80;;;25.10;99.90;;;;;;5077924;28;20017;-63
2022/01/01 07:34:55;;;;;;;9.35;1.63;;;24.90;99.90;;;;;;5077505;28;20029;-63
2022/01/01 07:37:22;;;;;;;16.30;1.83;;;24.70;99.90;;;;;;5075793;28;20029;-64
2022/01/01 07:39:49;;;;;;;12.43;2.20;;;24.60;99.90;;;;;;5078857;28;20009;-63
2022/01/01 07:42:17;;;;;;;11.57;1.48;;;24.40;99.90;;;;;;5071605;28;20016;-63
2022/01/01 07:44:44;;;;;;;13.13;1.73;;;24.30;99.90;;;;;;5078104;28;20065;-64
2022/01/01 07:47:11;;;;;;;13.15;2.25;;;24.20;99.90;;;;;;5077881;28;20025;-64
2022/01/01 07:49:38;;;;;;;10.15;1.08;;;24.20;99.90;;;;;;5077561;28;20081;-63
2022/01/01 07:52:06;;;;;;;11.80;1.48;;;24.20;99.90;;;;;;5077464;28;20073;-63
2022/01/01 07:54:33;;;;;;;12.43;1.90;;;24.20;99.90;;;;;;5077214;28;20036;-64
2022/01/01 07:57:00;;;;;;;9.82;1.88;;;24.20;99.90;;;;;;5088678;28;20025;-64
2022/01/01 07:59:27;;;;;;;9.30;1.73;;;24.10;99.90;;;;;;5070358;28;20012;-63
2022/01/01 08:01:55;;;;;;;14.32;1.85;;;24.00;99.90;;;;;;5068731;28;20029;-63
2022/01/01 08:04:22;;;;;;;11.95;1.65;;;24.10;99.90;;;;;;5077866;28;20017;-63
2022/01/01 08:06:49;;;;;;;13.90;1.90;;;24.10;99.90;;;;;;5077773;28;20028;-63
2022/01/01 08:09:16;;;;;;;11.35;1.73;;;24.10;99.90;;;;;;5077714;28;20016;-64
2022/01/01 08:11:44;;;;;;;12.63;2.28;;;24.10;99.90;;;;;;5074398;28;20021;-63
2022/01/01 08:14:11;;;;;;;15.02;2.25;;;24.10;99.90;;;;;;5077569;28;20016;-63
2022/01/01 08:17:05;;;;;;;11.38;1.75;;;24.10;99.90;;;;;;5077794;28;20056;-63
2022/01/01 08:19:33;;;;;;;15.73;2.10;;;24.00;99.90;;;;;;5070709;28;20017;-63
2022/01/01 08:22:01;;;;;;;9.18;1.70;;;24.10;99.90;;;;;;5073547;28;20041;-63
2022/01/01 08:24:28;;;;;;;10.88;1.20;;;24.00;99.90;;;;;;5074072;28;20006;-63
2022/01/01 08:26:55;;;;;;;9.95;1.35;;;24.00;99.90;;;;;;5075008;28;20032;-63
2022/01/01 08:29:23;;;;;;;9.35;2.08;;;24.00;99.90;;;;;;5076927;28;20055;-63
2022/01/01 08:31:51;;;;;;;9.60;1.98;;;24.00;99.90;;;;;;5071632;28;20036;-63
2022/01/01 08:34:19;;;;;;;13.25;1.98;;;24.00;99.90;;;;;;5068077;28;20016;-64
2022/01/01 08:36:47;;;;;;;14.07;2.55;;;23.90;99.90;;;;;;5074404;28;20029;-63
2022/01/01 08:39:15;;;;;;;9.95;1.45;;;24.00;99.90;;;;;;5076743;28;20023;-64
2022/01/01 08:41:44;;;;;;;12.27;1.77;;;23.90;99.90;;;;;;5076298;28;20028;-64
2022/01/01 08:44:12;;;;;;;17.50;2.83;;;23.90;99.90;;;;;;5076083;28;20029;-63
2022/01/01 08:46:39;;;;;;;11.95;1.67;;;23.90;99.90;;;;;;5085260;28;20044;-64
2022/01/01 08:49:07;;;;;;;17.55;3.75;;;23.90;99.90;;;;;;5076686;28;20030;-63
2022/01/01 08:51:35;;;;;;;13.38;2.28;;;23.90;99.90;;;;;;5077186;28;20024;-63
2022/01/01 08:54:03;;;;;;;10.85;1.98;;;23.80;99.90;;;;;;5074873;28;20056;-64
2022/01/01 08:56:32;;;;;;;8.38;1.90;;;23.80;99.90;;;;;;5067545;28;20036;-64
2022/01/01 08:58:59;;;;;;;14.52;2.08;;;23.70;99.90;;;;;;5072214;28;20004;-63
2022/01/01 09:01:27;;;;;;;15.70;2.25;;;23.70;99.90;;;;;;5066642;28;20024;-63
2022/01/01 09:03:56;;;;;;;9.25;1.92;;;23.70;99.90;;;;;;5077103;28;20029;-63
2022/01/01 09:06:23;;;;;;;12.18;1.88;;;23.70;99.90;;;;;;5076881;28;20012;-63
2022/01/01 09:08:51;;;;;;;12.32;2.03;;;23.70;99.90;;;;;;5077309;28;20097;-63
2022/01/01 09:11:18;;;;;;;14.70;2.78;;;23.60;99.90;;;;;;5077070;28;20017;-63
2022/01/01 09:13:46;;;;;;;20.55;2.13;;;23.60;99.90;;;;;;5074241;28;20084;-63
2022/01/01 09:16:15;;;;;;;17.80;2.70;;;23.60;99.90;;;;;;5067502;28;20085;-64
2022/01/01 09:18:45;;;;;;;14.32;2.67;;;23.60;99.90;;;;;;5054591;28;20021;-63
2022/01/01 09:21:13;;;;;;;30.13;3.15;;;23.50;99.90;;;;;;5067840;28;20029;-64
2022/01/01 09:23:41;;;;;;;16.73;3.00;;;23.50;99.90;;;;;;5066413;28;20044;-64
2022/01/01 09:26:08;;;;;;;15.55;3.08;;;23.50;99.90;;;;;;5074394;28;20021;-64
2022/01/01 09:28:36;;;;;;;20.35;3.03;;;23.50;99.90;;;;;;5075674;28;20040;-64
2022/01/01 09:31:04;;;;;;;17.45;2.83;;;23.50;99.90;;;;;;5072880;28;20029;-63
2022/01/01 09:33:32;;;;;;;17.08;2.88;;;23.40;99.90;;;;;;5056551;28;20093;-63
2022/01/01 09:36:07;;;;;;;17.05;2.38;;;23.50;99.90;;;;;;5070877;28;20027;-64
2022/01/01 09:38:34;;;;;;;13.05;2.80;;;23.40;99.90;;;;;;5072497;28;20013;-63
2022/01/01 09:41:03;;;;;;;18.33;3.50;;;23.40;99.90;;;;;;5065876;28;20037;-64
2022/01/01 09:43:32;;;;;;;22.70;2.50;;;23.30;99.90;;;;;;5067061;28;20099;-63
2022/01/01 09:46:01;;;;;;;15.05;2.13;;;23.30;99.90;;;;;;5068097;28;20036;-64
2022/01/01 09:48:30;;;;;;;11.57;2.40;;;23.30;99.90;;;;;;5070498;28;20029;-64
2022/01/01 09:51:03;;;;;;;14.57;2.22;;;23.30;99.90;;;;;;5071541;28;20021;-64
2022/01/01 09:53:32;;;;;;;12.57;1.83;;;23.40;99.90;;;;;;5074219;28;20036;-64
2022/01/01 09:56:01;;;;;;;16.02;3.00;;;23.30;99.90;;;;;;5068981;28;20032;-64
2022/01/01 09:58:34;;;;;;;18.83;2.65;;;23.30;99.90;;;;;;5072029;28;20056;-64
2022/01/01 10:01:03;;;;;;;12.13;2.13;;;23.30;99.90;;;;;;5072130;28;20096;-64
2022/01/01 10:03:41;;;;;;;9.30;1.80;;;23.30;99.90;;;;;;5070577;28;20045;-64
2022/01/01 10:06:22;;;;;;;13.30;2.70;;;23.30;99.90;;;;;;5066116;28;20047;-64
2022/01/01 10:09:03;;;;;;;16.05;2.40;;;23.20;99.90;;;;;;5074634;28;20056;-63
2022/01/01 10:11:33;;;;;;;11.73;2.13;;;23.30;99.90;;;;;;5073132;28;20020;-64
2022/01/01 10:14:08;;;;;;;11.13;2.00;;;23.30;99.90;;;;;;5075274;28;20036;-63
2022/01/01 10:16:47;;;;;;;16.13;2.47;;;23.30;99.90;;;;;;5070470;28;20005;-64
2022/01/01 10:19:14;;;;;;;10.95;1.95;;;23.20;99.90;;;;;;5076903;28;20081;-64
2022/01/01 10:21:42;;;;;;;12.40;2.42;;;23.20;99.90;;;;;;5069875;28;20033;-64
2022/01/01 10:24:19;;;;;;;15.10;2.08;;;23.20;99.90;;;;;;5071420;28;20021;-64
2022/01/01 10:29:34;;;;;;;12.10;2.58;;;23.20;99.90;;;;;;5077642;28;20087;-64
2022/01/01 10:32:13;;;;;;;12.60;1.70;;;23.10;99.90;;;;;;5075014;28;20089;-64
2022/01/01 10:34:47;;;;;;;15.50;2.03;;;23.20;99.90;;;;;;5078340;28;20051;-64
2022/01/01 10:37:16;;;;;;;15.88;2.17;;;23.20;99.90;;;;;;5066548;28;20090;-64
2022/01/01 10:39:57;;;;;;;16.27;2.58;;;23.10;99.90;;;;;;5061640;28;20040;-64
2022/01/01 10:42:24;;;;;;;15.18;2.10;;;23.10;99.90;;;;;;5062651;28;20056;-64
2022/01/01 10:44:53;;;;;;;10.23;1.30;;;23.10;99.90;;;;;;5051142;28;20082;-63
2022/01/01 10:47:32;;;;;;;9.65;1.38;;;23.10;99.90;;;;;;5055547;28;20504;-63
2022/01/01 10:52:45;;;;;;;7.93;1.27;;;23.10;99.90;;;;;;5055757;28;20397;-63
2022/01/01 10:55:14;;;;;;;13.18;2.45;;;23.10;99.90;;;;;;5056063;28;20087;-63
2022/01/01 10:58:02;;;;;;;13.25;2.08;;;23.10;99.90;;;;;;5063235;28;20032;-62
2022/01/01 11:00:30;;;;;;;16.10;2.10;;;23.00;99.90;;;;;;5057404;28;20827;-63
2022/01/01 11:02:59;;;;;;;12.65;1.50;;;23.10;99.90;;;;;;5058647;28;20048;-63
2022/01/01 11:05:30;;;;;;;8.27;1.45;;;23.10;99.90;;;;;;5058296;28;20029;-63
2022/01/01 11:07:58;;;;;;;12.35;2.83;;;23.10;99.90;;;;;;5058388;28;20033;-62
2022/01/01 11:10:26;;;;;;;11.27;1.98;;;23.10;99.90;;;;;;5058135;28;20095;-63
2022/01/01 11:12:55;;;;;;;12.93;2.03;;;23.10;99.90;;;;;;5057746;28;20025;-63
2022/01/01 11:15:23;;;;;;;12.88;2.05;;;23.00;99.90;;;;;;5058837;28;20512;-63
2022/01/01 11:17:50;;;;;;;12.73;1.65;;;23.00;99.90;;;;;;5059389;28;20025;-63
2022/01/01 11:20:19;;;;;;;17.13;2.58;;;23.00;99.90;;;;;;5048353;28;20024;-63
2022/01/01 11:22:48;;;;;;;14.80;2.38;;;23.00;99.90;;;;;;5057821;28;20477;-63
2022/01/01 11:25:17;;;;;;;21.65;3.28;;;23.00;99.90;;;;;;5057865;28;20036;-63
2022/01/01 11:27:45;;;;;;;10.60;1.95;;;23.00;99.90;;;;;;5053328;28;20052;-62
2022/01/01 11:30:13;;;;;;;17.30;2.28;;;22.90;99.90;;;;;;5039355;28;20425;-63
2022/01/01 11:32:51;;;;;;;11.57;1.45;;;22.90;99.90;;;;;;5057609;28;20048;-63
2022/01/01 11:35:37;;;;;;;16.08;1.65;;;22.90;99.90;;;;;;5058991;28;20061;-63
2022/01/01 11:38:13;;;;;;;13.35;2.38;;;22.90;99.90;;;;;;5059165;28;20095;-63
2022/01/01 11:40:48;;;;;;;14.35;2.53;;;22.80;99.90;;;;;;5059304;28;20103;-63
2022/01/01 11:43:43;;;;;;;12.85;2.28;;;22.80;99.90;;;;;;5057779;28;20021;-63
2022/01/01 11:46:11;;;;;;;17.50;2.13;;;22.80;99.90;;;;;;5058026;28;20088;-62
2022/01/01 11:49:00;;;;;;;16.98;2.47;;;22.80;99.90;;;;;;5058524;28;20021;-62
2022/01/01 11:51:34;;;;;;;12.18;2.17;;;22.80;99.90;;;;;;5059010;28;20416;-62
2022/01/01 11:54:24;;;;;;;12.15;1.73;;;22.70;99.90;;;;;;5058744;28;20056;-62
2022/01/01 11:56:52;;;;;;;15.75;2.53;;;22.70;99.90;;;;;;5058422;28;20028;-62
2022/01/01 11:59:27;;;;;;;10.52;2.10;;;22.70;99.90;;;;;;5060106;28;20021;-62
2022/01/01 12:02:07;;;;;;;10.95;2.25;;;22.70;99.90;;;;;;5059422;28;20079;-62
2022/01/01 12:04:44;;;;;;;17.05;2.00;;;22.70;99.90;;;;;;5059232;28;20041;-63
2022/01/01 12:07:12;;;;;;;11.55;2.03;;;22.70;99.90;;;;;;5058525;28;20080;-62
2022/01/01 12:10:07;;;;;;;15.75;2.28;;;22.70;99.90;;;;;;5059106;28;20116;-63
2022/01/01 12:12:49;;;;;;;12.77;2.58;;;22.70;99.90;;;;;;5042745;28;20037;-62
2022/01/01 12:15:39;;;;;;;13.80;1.70;;;22.70;99.90;;;;;;5039751;28;20056;-62
2022/01/01 12:18:12;;;;;;;9.55;1.63;;;22.70;99.90;;;;;;5055043;28;20401;-62
2022/01/01 12:20:50;;;;;;;10.50;2.42;;;22.70;99.90;;;;;;5057813;28;20025;-62
2022/01/01 12:23:27;;;;;;;17.83;3.03;;;22.60;99.90;;;;;;5051595;28;20048;-62
2022/01/01 12:25:55;;;;;;;15.57;1.92;;;22.60;99.90;;;;;;5056606;28;20033;-62
2022/01/01 12:28:28;;;;;;;19.23;2.72;;;22.60;99.90;;;;;;5038955;28;20032;-62
2022/01/01 12:31:16;;;;;;;12.43;1.90;;;22.60;99.90;;;;;;5041353;28;20487;-62
2022/01/01 12:33:45;;;;;;;15.38;1.77;;;22.70;99.90;;;;;;5050386;28;20049;-62
2022/01/01 12:36:14;;;;;;;11.15;1.70;;;22.60;99.90;;;;;;5041049;28;20032;-62
2022/01/01 12:38:49;;;;;;;9.48;2.17;;;22.60;99.90;;;;;;5059536;28;20027;-62
2022/01/01 12:41:19;;;;;;;12.60;1.63;;;22.60;99.90;;;;;;5056027;28;20017;-62
2022/01/01 12:43:49;;;;;;;10.25;1.67;;;22.60;99.90;;;;;;5056576;28;20057;-62
2022/01/01 12:46:22;;;;;;;12.60;1.83;;;22.60;99.90;;;;;;5053661;28;20020;-62
2022/01/01 12:48:50;;;;;;;12.77;1.85;;;22.60;99.90;;;;;;5040115;28;20085;-62
2022/01/01 12:51:23;;;;;;;11.93;1.90;;;22.60;99.90;;;;;;5044124;28;20083;-62
2022/01/01 12:54:02;;;;;;;17.00;2.08;;;22.60;99.90;;;;;;5059992;28;20028;-62
2022/01/01 12:56:31;;;;;;;10.40;2.10;;;22.50;99.90;;;;;;5061126;28;20029;-62
2022/01/01 12:59:03;;;;;;;12.88;1.83;;;22.50;99.90;;;;;;5060452;28;20040;-63
2022/01/01 13:01:32;;;;;;;17.05;1.42;;;22.50;99.90;;;;;;5058680;28;20025;-62